Time;durP1;ratioP1;P1;durP2;ratioP2;P2;SDS_P1;SDS_P2;PMS_P1;PMS_P2;Temp;Humidity;BMP_temperature;BMP_pressure;BME280_temperature;BME280_humidity;BME280_pressure;Samples;Min_cycle;Max_cycle;Signal;HPM_P1;HPM_P2
2024/02/04 00:01:41;;;;;;;11.57;4.03;;;;;;;4.90;85.39;101466.03;4990333;28;20124;-63
2024/02/04 00:04:07;;;;;;;5.38;2.85;;;;;;;5.20;83.57;101468.66;4994925;28;20214;-63
2024/02/04 00:06:32;;;;;;;10.15;2.67;;;;;;;5.37;82.61;101470.31;4993015;28;20038;-63
2024/02/04 00:08:58;;;;;;;7.32;1.90;;;;;;;5.51;81.70;101472.97;4994163;28;20077;-63
2024/02/04 00:11:23;;;;;;;5.43;2.35;;;;;;;5.56;81.67;101468.34;4990747;28;20030;-64
2024/02/04 00:13:49;;;;;;;6.93;2.65;;;;;;;5.60;81.10;101466.44;4977616;28;20043;-63
2024/02/04 00:16:14;;;;;;;5.13;1.80;;;;;;;5.51;81.29;101467.78;4996610;28;20263;-63
2024/02/04 00:18:40;;;;;;;9.93;2.88;;;;;;;5.53;80.96;101458.19;4997455;28;20434;-64
2024/02/04 00:21:05;;;;;;;6.80;2.33;;;;;;;5.66;80.81;101453.16;4996405;28;20038;-63
2024/02/04 00:23:31;;;;;;;6.57;2.05;;;;;;;5.73;80.15;101451.00;4991471;28;20038;-64
2024/02/04 00:25:56;;;;;;;7.68;2.70;;;;;;;5.70;80.46;101453.78;4992936;28;20485;-63
2024/02/04 00:28:22;;;;;;;7.88;2.40;;;;;;;5.74;80.18;101457.84;4995903;28;20041;-63
2024/02/04 00:30:49;;;;;;;9.00;2.63;;;;;;;5.71;80.54;101447.69;4992693;28;20034;-63
2024/02/04 00:33:15;;;;;;;3.97;2.03;;;;;;;5.62;80.43;101460.25;4996468;28;20030;-63
2024/02/04 00:35:41;;;;;;;7.85;2.13;;;;;;;5.61;80.62;101448.25;4995599;28;20056;-63
2024/02/04 00:38:08;;;;;;;4.00;1.83;;;;;;;5.60;80.81;101446.59;4983081;28;20046;-63
2024/02/04 00:40:34;;;;;;;5.45;2.25;;;;;;;5.61;80.49;101437.06;4985057;28;20467;-63
2024/02/04 00:42:59;;;;;;;4.60;2.08;;;;;;;5.67;80.10;101428.97;4992510;28;20054;-63
2024/02/04 00:45:25;;;;;;;8.20;2.00;;;;;;;5.67;79.99;101429.75;4998132;28;20034;-63
2024/02/04 00:47:50;;;;;;;5.65;2.38;;;;;;;5.70;80.05;101446.03;4990385;28;20069;-63
2024/02/04 00:50:16;;;;;;;7.63;2.33;;;;;;;5.62;80.15;101449.91;4991075;28;20041;-63
2024/02/04 00:52:41;;;;;;;6.90;2.05;;;;;;;5.64;80.14;101442.91;4968201;28;20478;-63
2024/02/04 00:55:07;;;;;;;7.57;2.25;;;;;;;5.62;80.11;101429.22;4988820;28;20022;-63
2024/02/04 00:57:32;;;;;;;5.13;1.90;;;;;;;5.52;80.47;101438.44;4979506;28;20485;-63
2024/02/04 00:59:58;;;;;;;8.85;3.97;;;;;;;5.36;81.86;101447.97;4992637;28;20030;-63
2024/02/04 01:02:23;;;;;;;20.70;6.20;;;;;;;5.13;82.55;101451.03;4988801;28;20070;-63
2024/02/04 01:04:50;;;;;;;17.40;7.15;;;;;;;4.92;83.59;101443.56;4987004;28;20030;-63
2024/02/04 01:07:15;;;;;;;14.98;6.40;;;;;;;4.76;84.24;101442.72;4998091;28;20042;-64
2024/02/04 01:09:41;;;;;;;19.65;8.07;;;;;;;4.62;84.92;101450.41;4990811;28;20046;-63
2024/02/04 01:12:07;;;;;;;20.52;9.77;;;;;;;4.49;85.94;101463.13;4989800;28;20029;-63
2024/02/04 01:14:33;;;;;;;22.45;8.95;;;;;;;4.37;87.06;101461.19;4986831;28;20084;-63
2024/02/04 01:16:58;;;;;;;25.98;8.90;;;;;;;4.31;87.29;101472.66;4986976;28;20034;-63
2024/02/04 01:19:24;;;;;;;24.17;10.25;;;;;;;4.27;87.00;101471.13;4988921;28;20765;-63
2024/02/04 01:21:49;;;;;;;18.98;9.23;;;;;;;4.20;87.72;101456.91;4985120;28;20481;-63
2024/02/04 01:24:15;;;;;;;13.13;6.63;;;;;;;4.25;87.89;101460.06;4992193;28;20081;-63
2024/02/04 01:26:40;;;;;;;15.07;7.60;;;;;;;4.49;87.15;101450.22;4992909;28;20041;-63
2024/02/04 01:29:06;;;;;;;16.02;7.32;;;;;;;4.51;86.53;101442.38;4989009;28;20049;-63
2024/02/04 01:31:31;;;;;;;11.65;6.25;;;;;;;4.53;85.83;101441.38;4985128;28;20109;-64
2024/02/04 01:33:57;;;;;;;10.88;5.22;;;;;;;4.68;85.44;101444.91;4991109;28;20038;-64
2024/02/04 01:36:22;;;;;;;5.38;2.45;;;;;;;4.93;84.34;101450.38;4990591;28;20435;-64
2024/02/04 01:38:47;;;;;;;6.45;2.50;;;;;;;5.20;82.44;101450.59;4987059;28;20029;-63
2024/02/04 01:41:13;;;;;;;9.60;2.30;;;;;;;5.27;82.14;101449.31;4988882;28;20083;-63
2024/02/04 01:43:39;;;;;;;8.15;2.45;;;;;;;5.25;81.71;101451.16;4986328;28;20090;-64
2024/02/04 01:46:04;;;;;;;13.10;4.68;;;;;;;5.20;81.83;101447.19;4985784;28;20031;-63
2024/02/04 01:48:30;;;;;;;12.95;5.82;;;;;;;5.08;82.49;101458.22;4989152;28;20453;-63
2024/02/04 01:50:59;;;;;;;16.60;6.80;;;;;;;4.93;83.21;101458.13;4990750;28;20497;-63
2024/02/04 01:53:26;;;;;;;15.18;6.43;;;;;;;4.75;84.05;101445.38;4992439;28;20058;-64
2024/02/04 01:55:52;;;;;;;14.93;7.15;;;;;;;4.55;84.37;101439.56;4988998;28;20454;-63
2024/02/04 01:58:17;;;;;;;14.27;7.00;;;;;;;4.34;85.33;101444.09;4985142;28;20042;-63
2024/02/04 02:00:43;;;;;;;20.40;6.25;;;;;;;4.16;86.25;101450.25;4986259;28;20041;-64
2024/02/04 02:03:12;;;;;;;12.38;5.97;;;;;;;3.94;87.43;101442.78;4982401;28;20042;-63
2024/02/04 02:05:39;;;;;;;12.57;6.60;;;;;;;3.77;88.05;101447.13;4984944;28;20030;-63
2024/02/04 02:08:05;;;;;;;14.02;6.82;;;;;;;3.61;88.81;101445.31;4988563;28;20057;-63
2024/02/04 02:10:31;;;;;;;15.00;6.57;;;;;;;3.54;89.86;101451.69;4987334;28;20041;-64
2024/02/04 02:13:03;;;;;;;12.40;6.20;;;;;;;3.51;89.88;101451.81;4990476;28;20482;-63
2024/02/04 02:15:39;;;;;;;18.08;7.20;;;;;;;3.48;90.65;101454.56;4985419;28;20390;-63
2024/02/04 02:18:10;;;;;;;19.73;8.07;;;;;;;3.51;90.20;101459.56;4987895;28;20458;-63
2024/02/04 02:20:39;;;;;;;16.92;8.70;;;;;;;3.46;89.75;101451.22;4983434;28;20443;-63
2024/02/04 02:23:13;;;;;;;13.10;5.20;;;;;;;3.43;91.54;101446.22;4983014;28;20526;-63
2024/02/04 02:25:39;;;;;;;8.60;4.63;;;;;;;3.91;89.95;101442.09;4984634;28;20505;-63
2024/02/04 02:28:05;;;;;;;6.60;2.47;;;;;;;4.37;87.23;101437.13;4986817;28;20118;-63
2024/02/04 02:30:30;;;;;;;3.97;2.10;;;;;;;4.53;86.29;101450.88;4967315;28;20038;-63
2024/02/04 02:32:56;;;;;;;7.45;2.60;;;;;;;4.63;85.40;101457.22;4988261;28;20528;-63
2024/02/04 02:35:22;;;;;;;8.98;3.08;;;;;;;4.67;84.73;101453.56;4987832;28;20561;-63
2024/02/04 02:38:03;;;;;;;11.07;2.35;;;;;;;4.56;84.24;101454.13;4988538;28;20145;-63
2024/02/04 02:40:28;;;;;;;9.73;2.75;;;;;;;4.24;85.09;101455.84;4985429;28;20033;-63
2024/02/04 02:42:55;;;;;;;11.32;4.30;;;;;;;3.93;86.61;101456.56;4988008;28;20031;-63
2024/02/04 02:45:24;;;;;;;7.47;2.75;;;;;;;3.65;87.50;101454.56;4982949;28;20124;-63
2024/02/04 02:47:51;;;;;;;9.18;3.58;;;;;;;4.17;86.81;101441.59;4980515;28;20082;-63
2024/02/04 02:50:16;;;;;;;6.55;2.58;;;;;;;4.32;86.05;101445.94;4987388;28;20747;-63
2024/02/04 02:52:42;;;;;;;6.50;2.05;;;;;;;4.33;86.08;101450.19;4989992;28;20041;-63
2024/02/04 02:55:08;;;;;;;7.85;2.20;;;;;;;4.41;85.63;101436.03;4987727;28;20109;-63
2024/02/04 02:57:33;;;;;;;7.82;2.33;;;;;;;4.58;84.20;101423.09;4986854;28;20033;-63
2024/02/04 02:59:58;;;;;;;4.65;2.17;;;;;;;4.54;84.39;101421.56;4971477;28;20042;-63
2024/02/04 03:02:24;;;;;;;13.32;3.03;;;;;;;4.42;84.58;101427.38;4989652;28;20040;-64
2024/02/04 03:04:49;;;;;;;9.93;4.00;;;;;;;4.11;85.23;101434.19;4982764;28;20035;-63
2024/02/04 03:07:15;;;;;;;13.68;5.25;;;;;;;3.77;86.13;101429.94;4991768;28;20030;-63
2024/02/04 03:09:40;;;;;;;9.77;5.40;;;;;;;3.48;87.60;101428.78;4986449;28;20057;-63
2024/02/04 03:12:06;;;;;;;13.98;5.47;;;;;;;3.28;88.54;101421.22;4990116;28;20030;-63
2024/02/04 03:14:31;;;;;;;15.88;5.35;;;;;;;3.03;90.33;101415.56;4992300;28;20082;-63
2024/02/04 03:16:57;;;;;;;15.88;6.25;;;;;;;2.88;91.20;101420.53;4984891;28;20073;-62
2024/02/04 03:19:22;;;;;;;15.27;6.75;;;;;;;2.75;92.64;101422.03;4989796;28;20053;-63
2024/02/04 03:21:48;;;;;;;18.73;7.00;;;;;;;2.70;94.80;101423.16;4991503;28;20069;-64
2024/02/04 03:24:13;;;;;;;12.85;6.57;;;;;;;2.66;93.87;101415.56;4990834;28;20030;-63
2024/02/04 03:26:39;;;;;;;15.07;6.75;;;;;;;2.55;94.99;101420.38;4991215;28;20041;-63
2024/02/04 03:29:07;;;;;;;14.18;7.10;;;;;;;2.45;94.53;101415.69;4987606;28;20430;-63
2024/02/04 03:31:32;;;;;;;14.38;6.00;;;;;;;2.38;94.73;101419.44;4984834;28;20026;-63
2024/02/04 03:33:58;;;;;;;19.85;7.65;;;;;;;2.39;95.71;101421.13;4984295;28;20057;-63
2024/02/04 03:36:24;;;;;;;14.82;6.78;;;;;;;2.31;95.95;101431.78;4988802;28;20092;-63
2024/02/04 03:38:51;;;;;;;12.73;6.47;;;;;;;2.32;97.19;101428.31;4994298;28;20062;-63
2024/02/04 03:41:17;;;;;;;16.38;7.13;;;;;;;2.36;96.04;101442.69;4986864;28;20042;-63
2024/02/04 03:43:42;;;;;;;16.15;7.03;;;;;;;2.50;97.77;101455.75;4989870;28;20123;-63
2024/02/04 03:46:08;;;;;;;12.55;4.25;;;;;;;3.02;95.58;101460.25;4990653;28;20109;-63
2024/02/04 03:48:35;;;;;;;7.90;3.90;;;;;;;3.41;93.08;101449.78;4987057;28;20060;-63
2024/02/04 03:51:01;;;;;;;5.40;2.33;;;;;;;3.60;91.44;101438.50;4992444;28;20042;-63
2024/02/04 03:53:26;;;;;;;9.70;3.35;;;;;;;3.85;89.94;101439.81;4992705;28;20026;-62
2024/02/04 03:55:52;;;;;;;6.15;2.05;;;;;;;3.98;88.67;101427.97;4986785;28;20136;-63
2024/02/04 03:58:19;;;;;;;7.40;2.47;;;;;;;3.99;88.29;101424.50;4997458;28;20065;-63
2024/02/04 04:00:45;;;;;;;8.40;2.65;;;;;;;4.00;87.91;101426.16;4989676;28;20681;-63
2024/02/04 04:03:10;;;;;;;7.20;2.45;;;;;;;4.00;87.88;101421.00;4985280;28;20172;-63
2024/02/04 04:05:35;;;;;;;4.88;2.10;;;;;;;3.97;87.41;101422.00;4990730;28;20117;-63
2024/02/04 04:08:01;;;;;;;6.97;1.70;;;;;;;3.92;87.66;101418.81;4985727;28;20068;-63
2024/02/04 04:10:26;;;;;;;6.65;2.17;;;;;;;3.77;87.51;101418.78;4990035;28;20052;-63
2024/02/04 04:12:52;;;;;;;9.05;3.75;;;;;;;3.56;88.37;101410.38;4989360;28;20057;-62
2024/02/04 04:15:17;;;;;;;12.65;6.47;;;;;;;3.22;89.32;101416.38;4987426;28;20034;-63
2024/02/04 04:17:43;;;;;;;17.92;5.35;;;;;;;3.12;91.05;101415.13;4992300;28;20030;-64
2024/02/04 04:20:08;;;;;;;13.60;5.90;;;;;;;3.01;90.69;101413.06;4995468;28;20030;-63
2024/02/04 04:22:34;;;;;;;13.45;5.43;;;;;;;3.02;92.36;101411.31;4990093;28;20501;-63
2024/02/04 04:24:59;;;;;;;10.55;4.45;;;;;;;3.18;91.80;101405.38;4990453;28;20074;-63
2024/02/04 04:27:24;;;;;;;8.23;2.78;;;;;;;3.36;91.30;101397.63;4990710;28;20125;-63
2024/02/04 04:29:50;;;;;;;6.30;2.38;;;;;;;3.58;90.43;101406.81;4988568;28;20045;-62
2024/02/04 04:32:15;;;;;;;7.93;2.58;;;;;;;3.73;89.63;101396.66;4992261;28;20041;-62
2024/02/04 04:34:41;;;;;;;4.13;1.70;;;;;;;3.89;88.54;101392.34;4987335;28;20196;-63
2024/02/04 04:37:06;;;;;;;4.03;1.83;;;;;;;3.90;88.20;101401.75;4994406;28;20062;-63
2024/02/04 04:39:32;;;;;;;5.45;2.00;;;;;;;3.92;88.25;101412.81;4989226;28;20039;-63
2024/02/04 04:41:57;;;;;;;9.07;2.58;;;;;;;3.91;88.06;101411.16;4983687;28;20035;-62
2024/02/04 04:44:23;;;;;;;4.28;2.30;;;;;;;3.87;88.05;101419.94;4988453;28;20065;-63
2024/02/04 04:46:48;;;;;;;9.73;2.30;;;;;;;3.88;88.26;101421.63;4989214;28;20058;-63
2024/02/04 04:49:14;;;;;;;10.70;2.67;;;;;;;3.85;88.17;101434.66;4981846;28;20069;-63
2024/02/04 04:51:43;;;;;;;7.47;2.17;;;;;;;3.85;87.78;101442.41;4990454;28;20038;-63
2024/02/04 04:54:09;;;;;;;3.80;1.77;;;;;;;3.91;87.86;101444.66;4986671;28;20482;-62
2024/02/04 04:56:40;;;;;;;6.70;2.08;;;;;;;3.87;88.03;101448.31;4989338;28;20041;-63
2024/02/04 04:59:07;;;;;;;5.38;2.05;;;;;;;3.90;87.89;101440.44;4983822;28;20023;-63
2024/02/04 05:01:32;;;;;;;5.18;1.80;;;;;;;3.83;88.44;101439.06;4988626;28;20046;-62
2024/02/04 05:03:58;;;;;;;4.05;1.73;;;;;;;3.82;88.23;101440.81;4980495;28;20485;-63
2024/02/04 05:06:23;;;;;;;3.97;1.85;;;;;;;3.81;88.34;101444.28;4991348;28;20030;-63
2024/02/04 05:08:48;;;;;;;4.78;1.70;;;;;;;3.80;88.18;101444.38;4988787;28;20493;-63
2024/02/04 05:11:14;;;;;;;6.20;2.10;;;;;;;3.81;88.16;101458.94;4984976;28;20030;-63
2024/02/04 05:13:39;;;;;;;9.68;2.10;;;;;;;3.80;87.96;101450.38;4987915;28;20060;-63
2024/02/04 05:16:05;;;;;;;6.57;1.95;;;;;;;3.84;88.13;101451.03;4988485;28;20073;-63
2024/02/04 05:18:31;;;;;;;6.35;2.05;;;;;;;3.91;87.43;101442.09;4984135;28;20038;-63
2024/02/04 05:20:56;;;;;;;6.03;2.28;;;;;;;3.98;87.18;101451.19;4987817;28;20026;-63
2024/02/04 05:23:22;;;;;;;4.07;2.00;;;;;;;3.97;86.88;101442.63;4995067;28;20039;-64
2024/02/04 05:25:47;;;;;;;7.07;2.13;;;;;;;3.92;86.99;101447.16;4971969;28;20390;-63
2024/02/04 05:28:13;;;;;;;11.93;2.30;;;;;;;3.84;86.95;101448.47;4987936;28;20034;-63
2024/02/04 05:30:38;;;;;;;4.85;2.25;;;;;;;3.77;87.67;101463.44;4984859;28;20057;-63
2024/02/04 05:33:04;;;;;;;2.72;1.33;;;;;;;3.77;87.64;101465.19;4996611;28;20101;-62
2024/02/04 05:35:29;;;;;;;4.53;1.48;;;;;;;3.77;87.99;101462.59;4976824;28;20035;-63
2024/02/04 05:37:54;;;;;;;5.57;1.25;;;;;;;3.76;87.58;101459.19;4966625;28;20459;-63
2024/02/04 05:40:20;;;;;;;3.42;1.65;;;;;;;3.73;88.19;101456.75;4989814;28;20092;-63
2024/02/04 05:42:45;;;;;;;7.97;2.70;;;;;;;3.80;87.92;101462.41;5001098;28;20123;-63
2024/02/04 05:45:12;;;;;;;6.43;2.25;;;;;;;3.78;87.98;101459.13;4997902;28;20061;-63
2024/02/04 05:47:37;;;;;;;4.55;2.10;;;;;;;3.78;87.77;101469.41;4990303;28;20343;-64
2024/02/04 05:50:03;;;;;;;6.18;1.85;;;;;;;3.72;88.09;101462.81;4976361;28;20033;-62
2024/02/04 05:52:28;;;;;;;3.65;1.67;;;;;;;3.67;88.38;101459.66;4991381;28;20037;-63
2024/02/04 05:54:54;;;;;;;5.65;1.70;;;;;;;3.61;88.00;101454.78;4981861;28;20068;-63
2024/02/04 05:57:20;;;;;;;4.70;1.90;;;;;;;3.60;87.67;101456.53;4987517;28;20042;-63
2024/02/04 05:59:48;;;;;;;11.35;1.85;;;;;;;3.50;87.88;101442.44;4992194;28;20037;-63
2024/02/04 06:02:13;;;;;;;6.07;2.30;;;;;;;3.39;88.21;101449.84;4992622;28;20052;-63
2024/02/04 06:04:39;;;;;;;4.13;1.50;;;;;;;3.41;88.60;101448.03;4992090;28;20038;-63
2024/02/04 06:07:05;;;;;;;5.60;2.50;;;;;;;3.31;88.20;101457.09;4997378;28;20033;-63
2024/02/04 06:09:33;;;;;;;16.52;5.82;;;;;;;2.97;89.04;101452.72;4986189;28;20494;-63
2024/02/04 06:11:58;;;;;;;14.18;5.72;;;;;;;2.72;90.33;101453.06;4984079;28;20038;-63
2024/02/04 06:14:24;;;;;;;13.82;5.90;;;;;;;2.42;92.50;101460.41;4982178;28;20089;-63
2024/02/04 06:16:49;;;;;;;9.77;4.75;;;;;;;2.33;92.96;101482.25;4985744;28;20394;-63
2024/02/04 06:19:15;;;;;;;13.18;5.57;;;;;;;2.25;92.36;101488.63;4990904;28;20034;-63
2024/02/04 06:21:40;;;;;;;11.20;5.68;;;;;;;2.17;93.02;101488.94;4988504;28;20169;-63
2024/02/04 06:24:06;;;;;;;10.18;3.42;;;;;;;2.27;96.12;101492.78;4986889;28;20037;-63
2024/02/04 06:26:32;;;;;;;11.52;3.17;;;;;;;2.60;94.88;101494.78;4990985;28;20049;-63
2024/02/04 06:28:57;;;;;;;5.38;2.45;;;;;;;2.93;93.18;101498.38;4988456;28;20148;-63
2024/02/04 06:31:23;;;;;;;8.77;3.08;;;;;;;3.12;91.88;101494.97;4984108;28;20038;-63
2024/02/04 06:33:48;;;;;;;7.07;2.58;;;;;;;3.28;91.31;101498.50;4974148;28;20026;-63
2024/02/04 06:36:13;;;;;;;5.90;1.60;;;;;;;3.50;90.03;101501.69;4993529;28;20042;-63
2024/02/04 06:38:39;;;;;;;3.70;1.23;;;;;;;3.59;89.17;101492.69;4983711;28;20056;-63
2024/02/04 06:41:04;;;;;;;4.03;1.77;;;;;;;3.60;89.10;101495.19;4988226;28;20326;-63
2024/02/04 06:43:30;;;;;;;4.43;2.00;;;;;;;3.56;89.36;101498.81;4971640;28;20041;-63
2024/02/04 06:45:56;;;;;;;6.35;1.70;;;;;;;3.52;89.48;101510.19;4989036;28;20033;-63
2024/02/04 06:48:21;;;;;;;5.10;1.52;;;;;;;3.48;89.49;101513.81;4991470;28;20077;-63
2024/02/04 06:50:47;;;;;;;3.55;1.52;;;;;;;3.45;89.74;101505.41;4993332;28;20072;-63
2024/02/04 06:53:15;;;;;;;5.05;1.83;;;;;;;3.37;89.60;101508.34;4991784;28;20089;-63
2024/02/04 06:55:41;;;;;;;5.55;1.83;;;;;;;3.38;90.29;101498.88;4987459;28;20457;-63
2024/02/04 06:58:06;;;;;;;5.35;2.45;;;;;;;3.40;90.22;101497.88;4993614;28;20034;-63
2024/02/04 07:00:32;;;;;;;5.18;1.73;;;;;;;3.42;89.79;101502.97;4995773;28;20366;-63
2024/02/04 07:02:57;;;;;;;7.55;2.05;;;;;;;3.47;89.90;101496.69;4991338;28;20034;-63
2024/02/04 07:05:23;;;;;;;4.53;1.80;;;;;;;3.50;89.29;101493.13;4989871;28;20042;-64
2024/02/04 07:07:49;;;;;;;7.55;2.10;;;;;;;3.53;89.18;101496.38;4993115;28;20026;-63
2024/02/04 07:10:15;;;;;;;4.90;2.58;;;;;;;3.57;89.40;101500.50;4992111;28;20197;-63
2024/02/04 07:12:41;;;;;;;8.07;2.08;;;;;;;3.60;88.86;101502.09;4990487;28;20485;-64
2024/02/04 07:15:08;;;;;;;5.53;1.88;;;;;;;3.67;88.80;101501.72;4995496;28;20062;-63
2024/02/04 07:17:34;;;;;;;5.90;1.55;;;;;;;3.76;87.98;101497.03;5001394;28;20034;-62
2024/02/04 07:20:00;;;;;;;7.10;2.45;;;;;;;3.86;86.71;101505.94;4992747;28;20518;-63
2024/02/04 07:22:25;;;;;;;9.50;3.83;;;;;;;3.81;86.89;101513.06;5002239;28;20030;-62
2024/02/04 07:24:51;;;;;;;8.50;4.85;;;;;;;3.58;87.69;101509.06;4988129;28;20512;-63
2024/02/04 07:27:16;;;;;;;16.38;5.95;;;;;;;3.31;88.50;101509.47;4994254;28;20025;-63
2024/02/04 07:29:41;;;;;;;10.68;5.45;;;;;;;3.19;89.68;101506.66;5000959;28;20026;-62
2024/02/04 07:32:07;;;;;;;10.05;5.15;;;;;;;3.11;89.70;101507.00;4992937;28;20084;-63
2024/02/04 07:34:32;;;;;;;11.60;4.75;;;;;;;3.02;90.15;101522.03;4990082;28;20038;-63
2024/02/04 07:36:58;;;;;;;9.55;5.40;;;;;;;2.98;90.37;101511.88;4991105;28;20055;-63
2024/02/04 07:39:23;;;;;;;10.90;4.93;;;;;;;2.95;90.93;101499.16;4990540;28;20398;-63
2024/02/04 07:41:49;;;;;;;8.00;3.30;;;;;;;3.06;91.05;101502.97;4998845;28;20026;-63
2024/02/04 07:44:14;;;;;;;8.25;3.15;;;;;;;3.24;90.85;101513.25;4999462;28;20055;-63
2024/02/04 07:46:40;;;;;;;8.45;2.08;;;;;;;3.41;89.92;101515.00;4998780;28;20030;-63
2024/02/04 07:49:06;;;;;;;8.20;2.80;;;;;;;3.49;89.46;101512.06;4994774;28;20058;-63
2024/02/04 07:51:32;;;;;;;8.13;3.08;;;;;;;3.55;89.14;101506.63;4975810;28;20034;-63
2024/02/04 07:53:57;;;;;;;10.65;2.47;;;;;;;3.61;88.72;101506.34;4993771;28;20112;-63
2024/02/04 07:56:22;;;;;;;3.97;1.98;;;;;;;3.70;88.00;101505.06;4993701;28;20110;-63
2024/02/04 07:58:48;;;;;;;5.43;2.42;;;;;;;3.78;87.79;101511.47;4991656;28;20030;-63
2024/02/04 08:01:13;;;;;;;4.30;2.13;;;;;;;3.83;87.48;101516.41;4978058;28;20049;-63
2024/02/04 08:03:39;;;;;;;5.40;2.42;;;;;;;3.91;87.13;101511.72;4991709;28;20022;-63
2024/02/04 08:06:05;;;;;;;7.28;1.90;;;;;;;3.96;86.87;101517.47;4989316;28;20038;-63
2024/02/04 08:08:31;;;;;;;11.25;3.05;;;;;;;4.01;86.62;101530.97;4992243;28;20107;-63
2024/02/04 08:10:56;;;;;;;7.40;3.47;;;;;;;3.97;86.71;101516.56;4993166;28;20128;-63
2024/02/04 08:13:22;;;;;;;9.88;4.43;;;;;;;3.81;87.79;101518.22;4991531;28;20499;-63
2024/02/04 08:15:47;;;;;;;9.55;5.88;;;;;;;3.61;88.57;101527.78;4993815;28;20037;-63
2024/02/04 08:18:12;;;;;;;15.02;7.82;;;;;;;3.54;89.11;101528.97;4995262;28;20042;-63
2024/02/04 08:20:38;;;;;;;19.30;7.80;;;;;;;3.61;88.97;101530.34;4985869;28;20030;-64
2024/02/04 08:23:03;;;;;;;14.43;6.70;;;;;;;3.77;88.60;101521.88;4971302;28;20037;-63
2024/02/04 08:25:29;;;;;;;12.43;6.50;;;;;;;3.84;88.13;101534.38;4995203;28;20453;-63
2024/02/04 08:27:54;;;;;;;14.85;8.13;;;;;;;3.92;88.26;101537.41;4990718;28;20084;-63
2024/02/04 08:30:20;;;;;;;17.75;8.05;;;;;;;4.00;87.63;101535.28;4992346;28;20041;-63
2024/02/04 08:32:46;;;;;;;12.27;3.63;;;;;;;4.16;86.75;101542.28;4977134;28;20042;-63
2024/02/04 08:35:11;;;;;;;7.55;3.63;;;;;;;4.42;86.52;101543.50;5007167;28;20060;-63
2024/02/04 08:37:37;;;;;;;5.97;2.45;;;;;;;4.66;85.06;101539.66;4992115;28;20094;-63
2024/02/04 08:40:06;;;;;;;6.20;2.30;;;;;;;4.86;83.84;101548.91;4971997;28;20082;-63
2024/02/04 08:42:32;;;;;;;5.47;2.15;;;;;;;4.95;83.46;101546.69;4990213;28;20033;-63
2024/02/04 08:44:57;;;;;;;6.55;2.28;;;;;;;4.97;83.50;101541.44;4994363;28;20352;-63
2024/02/04 08:47:23;;;;;;;7.72;2.45;;;;;;;5.03;83.08;101548.03;4980540;28;20523;-63
2024/02/04 08:49:49;;;;;;;6.97;2.38;;;;;;;5.04;83.27;101544.53;4990139;28;20093;-63
2024/02/04 08:52:14;;;;;;;7.30;1.35;;;;;;;5.06;82.92;101546.13;4990900;28;20027;-63
2024/02/04 08:54:40;;;;;;;4.57;1.98;;;;;;;5.10;82.92;101539.03;4989982;28;20034;-64
2024/02/04 08:57:05;;;;;;;3.95;2.20;;;;;;;5.19;82.62;101556.63;4987084;28;20034;-64
2024/02/04 08:59:31;;;;;;;6.32;1.63;;;;;;;5.46;81.80;101559.44;4996439;28;20514;-65
2024/02/04 09:01:57;;;;;;;3.95;1.80;;;;;;;5.63;81.37;101570.50;4993905;28;20109;-63
2024/02/04 09:04:22;;;;;;;6.70;2.20;;;;;;;5.79;80.73;101577.38;4986211;28;20544;-64
2024/02/04 09:06:48;;;;;;;4.10;1.88;;;;;;;5.91;80.38;101579.31;4984719;28;20038;-64
2024/02/04 09:09:13;;;;;;;5.20;2.00;;;;;;;5.93;79.78;101582.63;4991880;28;20414;-64
2024/02/04 09:11:39;;;;;;;6.95;2.55;;;;;;;6.09;79.62;101585.19;4991610;28;20059;-65
2024/02/04 09:14:04;;;;;;;4.50;2.22;;;;;;;6.18;79.54;101582.88;4969418;28;20031;-64
2024/02/04 09:16:30;;;;;;;8.60;2.22;;;;;;;6.26;79.65;101579.84;4992288;28;20067;-65
2024/02/04 09:18:55;;;;;;;7.90;2.78;;;;;;;6.31;79.84;101583.84;4985263;28;20053;-65
2024/02/04 09:21:21;;;;;;;10.48;2.88;;;;;;;6.37;79.72;101577.47;4987179;28;20038;-66
2024/02/04 09:23:47;;;;;;;9.57;4.05;;;;;;;6.41;80.19;101584.13;4998938;28;20491;-63
2024/02/04 09:26:12;;;;;;;12.63;4.60;;;;;;;6.43;80.31;101589.22;4990073;28;20030;-63
2024/02/04 09:28:38;;;;;;;9.52;4.30;;;;;;;6.38;81.15;101581.72;4990499;28;20045;-62
2024/02/04 09:31:03;;;;;;;12.35;4.70;;;;;;;6.40;81.45;101587.66;4992358;28;20045;-62
2024/02/04 09:33:29;;;;;;;11.55;4.70;;;;;;;6.43;81.75;101595.22;4995657;28;20049;-63
2024/02/04 09:35:55;;;;;;;11.32;4.13;;;;;;;6.43;81.49;101589.22;4990332;28;20359;-62
2024/02/04 09:38:20;;;;;;;10.82;4.50;;;;;;;6.48;81.67;101588.03;4998994;28;20045;-63
2024/02/04 09:40:45;;;;;;;14.10;4.75;;;;;;;6.57;81.44;101586.66;4994511;28;20037;-63
2024/02/04 09:43:11;;;;;;;7.63;3.95;;;;;;;6.61;81.49;101575.19;4990504;28;20482;-63
2024/02/04 09:45:38;;;;;;;11.10;4.10;;;;;;;6.65;81.39;101582.66;4997465;28;20033;-62
2024/02/04 09:48:04;;;;;;;8.60;4.28;;;;;;;6.75;81.12;101585.53;4990579;28;20029;-63
2024/02/04 09:50:29;;;;;;;9.55;4.38;;;;;;;6.79;81.10;101579.25;4985879;28;20031;-62
2024/02/04 09:52:59;;;;;;;9.52;4.50;;;;;;;6.86;81.11;101579.69;4992149;28;20033;-62
2024/02/04 09:55:26;;;;;;;9.00;3.88;;;;;;;6.97;80.28;101588.50;4993774;28;20041;-63
2024/02/04 09:57:52;;;;;;;9.10;5.05;;;;;;;7.44;77.36;101587.28;4991719;28;20034;-63
2024/02/04 10:00:20;;;;;;;8.98;3.90;;;;;;;7.65;77.26;101588.50;4993179;28;20064;-63
2024/02/04 10:02:48;;;;;;;10.95;4.25;;;;;;;7.71;77.44;101583.84;4982432;28;20410;-63
2024/02/04 10:05:14;;;;;;;10.50;4.43;;;;;;;7.80;77.35;101573.72;4990387;28;20117;-63
2024/02/04 10:07:40;;;;;;;10.45;3.50;;;;;;;7.87;77.56;101574.97;4987370;28;20952;-63
2024/02/04 10:10:06;;;;;;;7.13;3.85;;;;;;;8.12;75.01;101588.91;4994905;28;20049;-62
2024/02/04 10:12:32;;;;;;;8.32;4.68;;;;;;;8.20;74.79;101587.47;4996174;28;20023;-63
2024/02/04 10:14:59;;;;;;;7.55;4.25;;;;;;;8.28;75.35;101582.63;4991607;28;20492;-63
2024/02/04 10:17:25;;;;;;;7.53;3.83;;;;;;;8.28;75.01;101587.81;4990926;28;20478;-62
2024/02/04 10:19:50;;;;;;;8.02;3.40;;;;;;;8.18;75.47;101580.72;4989166;28;20129;-63
2024/02/04 10:22:17;;;;;;;10.07;3.08;;;;;;;8.18;75.73;101584.16;4992560;28;20081;-63
2024/02/04 10:24:43;;;;;;;7.65;2.90;;;;;;;8.32;75.36;101581.50;4994165;28;20044;-63
2024/02/04 10:27:11;;;;;;;8.77;3.38;;;;;;;8.34;75.44;101580.56;4992677;28;20041;-62
2024/02/04 10:29:37;;;;;;;7.75;3.63;;;;;;;8.44;74.67;101584.22;4983605;28;20484;-62
2024/02/04 10:32:02;;;;;;;6.45;3.92;;;;;;;8.55;75.15;101576.50;4988561;28;20030;-62
2024/02/04 10:34:29;;;;;;;9.15;4.18;;;;;;;8.59;74.70;101588.34;5003123;28;20111;-62
2024/02/04 10:36:56;;;;;;;10.32;4.65;;;;;;;8.61;74.32;101578.69;4989358;28;20520;-65
2024/02/04 10:39:21;;;;;;;10.77;4.03;;;;;;;8.79;73.33;101568.81;4986473;28;20512;-62
2024/02/04 10:41:51;;;;;;;11.48;3.60;;;;;;;8.97;72.64;101570.97;4984212;28;20042;-63
2024/02/04 10:44:20;;;;;;;10.45;4.15;;;;;;;9.10;71.78;101552.72;4987598;28;20033;-63
2024/02/04 10:46:50;;;;;;;11.82;3.75;;;;;;;9.07;71.67;101552.94;4990985;28;20152;-62
2024/02/04 10:49:18;;;;;;;11.48;4.53;;;;;;;9.13;72.67;101541.28;4980673;28;20430;-63
2024/02/04 10:51:45;;;;;;;9.30;3.70;;;;;;;9.08;72.59;101530.38;4984446;28;20058;-62
2024/02/04 10:54:23;;;;;;;17.23;4.78;;;;;;;9.06;73.13;101527.03;4981926;28;20121;-62
2024/02/04 10:56:55;;;;;;;14.65;4.50;;;;;;;9.06;73.10;101524.44;4982454;28;20030;-64
2024/02/04 10:59:21;;;;;;;17.92;6.43;;;;;;;9.09;73.08;101519.03;4989104;28;20113;-64
2024/02/04 11:01:50;;;;;;;16.80;4.82;;;;;;;9.10;73.80;101515.50;4986574;28;20022;-64
2024/02/04 11:04:17;;;;;;;18.30;6.25;;;;;;;9.14;74.03;101509.13;4976259;28;20049;-64
2024/02/04 11:06:44;;;;;;;19.13;7.18;;;;;;;9.22;74.35;101515.44;4990046;28;20525;-64
2024/02/04 11:09:11;;;;;;;26.60;7.75;;;;;;;9.35;74.34;101505.00;4976585;28;20046;-64
2024/02/04 11:11:38;;;;;;;15.27;6.72;;;;;;;9.35;74.24;101489.41;4979105;28;20023;-64
2024/02/04 11:14:07;;;;;;;21.23;9.30;;;;;;;9.32;74.89;101490.44;4989514;28;20030;-64
2024/02/04 11:16:44;;;;;;;21.90;8.82;;;;;;;9.38;74.66;101483.97;4988450;28;20120;-63
2024/02/04 11:19:22;;;;;;;21.08;9.15;;;;;;;9.43;75.15;101486.25;4995410;28;20030;-63
2024/02/04 11:22:05;;;;;;;21.50;9.48;;;;;;;9.36;75.49;101485.84;4979315;28;20498;-64
2024/02/04 11:25:01;;;;;;;22.63;9.30;;;;;;;9.36;75.49;101480.66;4987421;28;20089;-64